createdAt,value
2022-11-12T00:00:51.654Z,5.10
2022-11-12T00:03:19.036Z,4.75
2022-11-12T00:05:46.884Z,7.15
2022-11-12T00:08:14.241Z,6.45
2022-11-12T00:10:41.588Z,5.40
2022-11-12T00:13:09.000Z,5.05
2022-11-12T00:15:36.341Z,5.18
2022-11-12T00:18:03.727Z,4.68
2022-11-12T00:20:31.054Z,5.15
2022-11-12T00:22:58.351Z,5.60
2022-11-12T00:25:25.714Z,4.35
2022-11-12T00:27:53.029Z,4.90
2022-11-12T00:30:20.575Z,5.00
2022-11-12T00:32:47.871Z,4.97
2022-11-12T00:35:15.216Z,5.28
2022-11-12T00:37:42.834Z,4.72
2022-11-12T00:40:10.326Z,5.30
2022-11-12T00:42:37.737Z,5.03
2022-11-12T00:45:05.331Z,5.45
2022-11-12T00:47:32.660Z,5.43
2022-11-12T00:49:59.963Z,4.70
2022-11-12T00:52:27.263Z,4.90
2022-11-12T00:54:54.647Z,4.53
2022-11-12T00:57:21.964Z,4.43
2022-11-12T00:59:49.295Z,4.43
2022-11-12T01:02:16.626Z,4.88
2022-11-12T01:04:43.952Z,4.63
2022-11-12T01:07:11.399Z,6.00
2022-11-12T01:09:38.839Z,4.93
2022-11-12T01:12:06.257Z,4.90
2022-11-12T01:14:33.630Z,5.35
2022-11-12T01:17:01.087Z,5.25
2022-11-12T01:19:28.377Z,5.30
2022-11-12T01:21:55.735Z,5.18
2022-11-12T01:24:23.107Z,4.95
2022-11-12T01:26:50.381Z,5.15
2022-11-12T01:29:17.673Z,4.57
2022-11-12T01:31:45.027Z,4.57
2022-11-12T01:34:12.505Z,4.68
2022-11-12T01:36:40.704Z,6.05
2022-11-12T01:39:09.020Z,5.28
2022-11-12T01:41:37.327Z,5.07
2022-11-12T01:44:15.143Z,5.25
2022-11-12T01:46:48.584Z,5.38
2022-11-12T01:49:18.947Z,5.05
2022-11-12T01:51:48.502Z,5.43
2022-11-12T01:54:17.978Z,5.10
2022-11-12T01:56:45.610Z,5.28
2022-11-12T01:59:15.436Z,5.28
2022-11-12T02:01:42.810Z,5.63
2022-11-12T02:04:10.199Z,4.53
2022-11-12T02:06:37.754Z,5.13
2022-11-12T02:09:05.232Z,4.35
2022-11-12T02:11:32.524Z,5.50
2022-11-12T02:14:02.837Z,5.13
2022-11-12T02:16:38.333Z,5.95
2022-11-12T02:19:14.247Z,5.28
2022-11-12T02:21:41.978Z,5.18
2022-11-12T02:24:16.393Z,4.65
2022-11-12T02:26:46.891Z,5.30
2022-11-12T02:29:14.245Z,5.82
2022-11-12T02:31:41.542Z,5.05
2022-11-12T02:34:08.986Z,5.65
2022-11-12T02:36:36.277Z,5.05
2022-11-12T02:39:03.600Z,4.75
2022-11-12T02:41:30.972Z,7.55
2022-11-12T02:43:58.342Z,5.88
2022-11-12T02:46:25.714Z,5.03
2022-11-12T02:48:53.071Z,5.57
2022-11-12T02:51:20.345Z,5.72
2022-11-12T02:53:47.656Z,6.85
2022-11-12T02:56:15.036Z,5.35
2022-11-12T02:58:42.345Z,6.22
2022-11-12T03:01:09.799Z,5.10
2022-11-12T03:03:37.242Z,5.10
2022-11-12T03:06:04.646Z,5.05
2022-11-12T03:08:31.949Z,5.97
2022-11-12T03:10:59.234Z,5.70
2022-11-12T03:13:26.702Z,5.68
2022-11-12T03:15:59.576Z,5.40
2022-11-12T03:18:27.187Z,5.70
2022-11-12T03:20:54.787Z,6.35
2022-11-12T03:23:22.113Z,5.95
2022-11-12T03:25:49.406Z,5.80
2022-11-12T03:28:17.560Z,5.50
2022-11-12T03:30:45.229Z,5.53
2022-11-12T03:33:13.427Z,6.00
2022-11-12T03:35:40.760Z,5.20
2022-11-12T03:38:08.385Z,5.95
2022-11-12T03:40:35.728Z,5.72
2022-11-12T03:43:03.072Z,6.25
2022-11-12T03:45:30.428Z,6.43
2022-11-12T03:47:59.389Z,5.82
2022-11-12T03:50:27.959Z,6.00
2022-11-12T03:52:57.454Z,5.88
2022-11-12T03:55:26.387Z,5.63
2022-11-12T03:57:54.503Z,5.68
2022-11-12T04:00:22.739Z,5.45
2022-11-12T04:02:50.107Z,5.80
2022-11-12T04:05:36.347Z,6.38
2022-11-12T04:08:27.236Z,5.43
2022-11-12T04:10:54.887Z,5.75
2022-11-12T04:13:28.479Z,5.72
2022-11-12T04:16:14.508Z,6.35
2022-11-12T04:19:00.547Z,5.38
2022-11-12T04:21:50.031Z,5.60
2022-11-12T04:24:42.808Z,6.68
2022-11-12T04:27:30.354Z,6.45
2022-11-12T04:30:16.081Z,6.05
2022-11-12T04:32:57.008Z,5.55
2022-11-12T04:35:25.173Z,5.88
2022-11-12T04:37:52.735Z,5.88
2022-11-12T04:40:43.125Z,5.75
2022-11-12T04:43:30.360Z,5.30
2022-11-12T04:45:58.156Z,5.38
2022-11-12T04:48:26.638Z,5.90
2022-11-12T04:51:01.910Z,5.68
2022-11-12T04:53:29.762Z,5.47
2022-11-12T04:55:58.183Z,5.53
2022-11-12T04:58:25.937Z,6.32
2022-11-12T05:00:53.624Z,6.20
2022-11-12T05:03:21.177Z,5.82
2022-11-12T05:05:48.501Z,6.90
2022-11-12T05:08:15.891Z,6.32
2022-11-12T05:10:43.172Z,6.00
2022-11-12T05:13:10.474Z,6.43
2022-11-12T05:15:37.799Z,5.88
2022-11-12T05:18:05.226Z,5.78
2022-11-12T05:20:32.510Z,6.57
2022-11-12T05:23:06.864Z,5.88
2022-11-12T05:25:37.860Z,5.47
2022-11-12T05:28:06.985Z,5.38
2022-11-12T05:30:35.260Z,5.88
2022-11-12T05:33:02.564Z,5.13
2022-11-12T05:35:29.905Z,5.78
2022-11-12T05:37:57.299Z,6.05
2022-11-12T05:40:24.794Z,5.85
2022-11-12T05:42:52.120Z,5.85
2022-11-12T05:45:19.456Z,7.47
2022-11-12T05:47:46.754Z,6.13
2022-11-12T05:50:14.193Z,7.05
2022-11-12T05:52:41.488Z,6.68
2022-11-12T05:55:09.043Z,6.90
2022-11-12T05:57:36.405Z,7.00
2022-11-12T06:00:05.471Z,6.05
2022-11-12T06:02:33.060Z,7.18
2022-11-12T06:05:00.473Z,7.30
2022-11-12T06:07:27.869Z,8.02
2022-11-12T06:09:55.210Z,7.90
2022-11-12T06:12:22.477Z,7.18
2022-11-12T06:14:49.826Z,6.97
2022-11-12T06:17:17.331Z,7.63
2022-11-12T06:19:44.634Z,6.68
2022-11-12T06:22:11.956Z,7.30
2022-11-12T06:24:39.320Z,7.15
2022-11-12T06:27:06.640Z,7.53
2022-11-12T06:29:34.684Z,7.63
2022-11-12T06:32:02.124Z,7.97
2022-11-12T06:34:29.460Z,8.43
2022-11-12T06:36:56.814Z,7.15
2022-11-12T06:39:24.073Z,8.07
2022-11-12T06:41:51.689Z,7.95
2022-11-12T06:44:22.190Z,7.40
2022-11-12T06:46:49.921Z,8.40
2022-11-12T06:49:17.245Z,8.38
2022-11-12T06:51:44.554Z,8.82
2022-11-12T06:54:12.131Z,8.40
2022-11-12T06:56:39.417Z,8.43
2022-11-12T06:59:06.840Z,8.88
2022-11-12T07:01:34.192Z,8.82
2022-11-12T07:04:01.585Z,8.52
2022-11-12T07:06:28.928Z,8.00
2022-11-12T07:08:58.859Z,8.45
2022-11-12T07:11:26.204Z,8.55
2022-11-12T07:13:53.622Z,9.00
2022-11-12T07:16:22.413Z,10.13
2022-11-12T07:18:50.392Z,8.27
2022-11-12T07:21:18.954Z,9.90
2022-11-12T07:23:46.374Z,10.20
2022-11-12T07:26:23.599Z,10.52
2022-11-12T07:28:52.015Z,10.00
2022-11-12T07:31:20.515Z,9.18
2022-11-12T07:33:50.799Z,9.50
2022-11-12T07:36:19.387Z,10.48
2022-11-12T07:38:47.123Z,10.00
2022-11-12T07:41:19.145Z,11.63
2022-11-12T07:43:47.783Z,10.43
2022-11-12T07:46:22.610Z,10.93
2022-11-12T07:48:50.005Z,11.45
2022-11-12T07:51:20.386Z,11.57
2022-11-12T07:53:48.485Z,11.35
2022-11-12T07:56:20.200Z,10.70
2022-11-12T07:58:48.293Z,11.68
2022-11-12T08:01:25.017Z,11.45
2022-11-12T08:03:52.584Z,13.95
2022-11-12T08:06:19.885Z,13.20
2022-11-12T08:08:47.399Z,12.35
2022-11-12T08:11:14.707Z,12.25
2022-11-12T08:13:42.030Z,11.45
2022-11-12T08:16:09.373Z,10.93
2022-11-12T08:18:36.809Z,10.65
2022-11-12T08:21:05.262Z,12.55
2022-11-12T08:23:32.640Z,10.57
2022-11-12T08:26:00.864Z,10.80
2022-11-12T08:28:31.665Z,9.05
2022-11-12T08:30:59.194Z,9.43
2022-11-12T08:33:26.558Z,9.35
2022-11-12T08:35:54.388Z,9.75
2022-11-12T08:38:21.766Z,8.98
2022-11-12T08:40:49.196Z,8.48
2022-11-12T08:43:16.521Z,8.20
2022-11-12T08:45:43.820Z,8.07
2022-11-12T08:48:16.378Z,8.68
2022-11-12T08:50:43.749Z,7.90
2022-11-12T08:53:13.720Z,7.97
2022-11-12T08:55:41.221Z,7.70
2022-11-12T08:58:08.605Z,7.68
2022-11-12T09:00:37.360Z,6.50
2022-11-12T09:03:05.687Z,6.40
2022-11-12T09:05:33.265Z,6.60
2022-11-12T09:08:01.576Z,7.18
2022-11-12T09:10:29.512Z,6.65
2022-11-12T09:12:57.266Z,6.15
2022-11-12T09:15:40.684Z,5.80
2022-11-12T09:18:09.474Z,5.60
2022-11-12T09:20:36.792Z,5.05
2022-11-12T09:23:09.037Z,4.65
2022-11-12T09:25:36.945Z,4.22
2022-11-12T09:28:11.534Z,4.07
2022-11-12T09:30:39.515Z,4.00
2022-11-12T09:33:06.800Z,3.97
2022-11-12T09:35:34.149Z,3.63
2022-11-12T09:38:01.588Z,3.92
2022-11-12T09:40:47.019Z,3.72
2022-11-12T09:43:32.916Z,3.58
2022-11-12T09:49:16.315Z,3.58
2022-11-12T09:51:47.494Z,3.17
2022-11-12T09:54:26.154Z,2.90
2022-11-12T09:56:54.118Z,2.97
2022-11-12T09:59:23.020Z,3.53
2022-11-12T10:01:50.363Z,3.03
2022-11-12T10:04:32.691Z,3.38
2022-11-12T10:07:06.997Z,3.70
2022-11-12T10:09:54.603Z,3.78
2022-11-12T10:12:44.513Z,3.70
2022-11-12T10:15:49.059Z,3.63
2022-11-12T10:18:34.956Z,3.35
2022-11-12T10:21:23.824Z,3.28
2022-11-12T10:23:52.953Z,3.53
2022-11-12T10:26:21.610Z,3.25
2022-11-12T10:28:48.936Z,3.38
2022-11-12T10:31:17.622Z,3.72
2022-11-12T10:33:45.129Z,3.65
2022-11-12T10:36:27.356Z,4.07
2022-11-12T10:38:55.417Z,3.72
2022-11-12T10:41:24.874Z,4.45
2022-11-12T10:43:58.396Z,3.60
2022-11-12T10:46:38.645Z,3.17
2022-11-12T10:49:25.330Z,3.20
2022-11-12T10:51:57.291Z,3.58
2022-11-12T10:54:27.414Z,3.35
2022-11-12T10:56:55.731Z,3.33
2022-11-12T10:59:26.717Z,3.20
2022-11-12T11:02:01.171Z,3.42
2022-11-12T11:04:32.894Z,2.92
2022-11-12T11:07:01.579Z,3.20
2022-11-12T11:09:29.120Z,3.50
2022-11-12T11:11:56.503Z,2.70
2022-11-12T11:14:23.855Z,3.03
2022-11-12T11:16:52.555Z,2.75
2022-11-12T11:19:20.460Z,3.15
2022-11-12T11:21:47.818Z,3.30
2022-11-12T11:24:34.272Z,3.55
2022-11-12T11:27:06.443Z,3.70
2022-11-12T11:29:52.360Z,3.30
2022-11-12T11:32:19.771Z,3.63
2022-11-12T11:35:05.288Z,3.30
2022-11-12T11:37:38.432Z,3.60
2022-11-12T11:40:13.637Z,3.47
2022-11-12T11:42:43.829Z,3.78
2022-11-12T11:45:14.039Z,3.92
2022-11-12T11:48:00.446Z,4.40
2022-11-12T11:50:30.005Z,3.75
2022-11-12T11:53:15.415Z,3.83
2022-11-12T11:55:45.815Z,4.00
2022-11-12T11:58:32.582Z,4.63
2022-11-12T12:01:05.873Z,4.03
2022-11-12T12:03:47.196Z,4.20
2022-11-12T12:06:28.039Z,3.22
2022-11-12T12:09:01.290Z,4.00
2022-11-12T12:11:48.881Z,3.67
2022-11-12T12:14:30.231Z,3.40
2022-11-12T12:17:02.389Z,3.30
2022-11-12T12:19:44.873Z,3.42
2022-11-12T12:22:17.510Z,3.38
2022-11-12T12:24:52.274Z,3.50
2022-11-12T12:27:22.629Z,3.65
2022-11-12T12:29:53.040Z,3.60
2022-11-12T12:32:24.674Z,3.45
2022-11-12T12:35:12.390Z,4.07
2022-11-12T12:37:45.767Z,3.60
2022-11-12T12:40:32.085Z,3.55
2022-11-12T12:43:06.835Z,4.32
2022-11-12T12:45:40.487Z,3.95
2022-11-12T12:48:09.844Z,3.78
2022-11-12T12:50:39.105Z,3.88
2022-11-12T12:53:16.343Z,3.92
2022-11-12T12:55:50.520Z,3.92
2022-11-12T12:58:20.050Z,4.07
2022-11-12T13:00:50.091Z,5.00
2022-11-12T13:03:50.600Z,4.80
2022-11-12T13:06:25.917Z,4.68
2022-11-12T13:09:04.596Z,4.93
2022-11-12T13:12:02.813Z,4.45
2022-11-12T13:14:36.452Z,4.25
2022-11-12T13:17:10.849Z,4.00
2022-11-12T13:19:38.113Z,4.30
2022-11-12T13:22:17.664Z,4.30
2022-11-12T13:25:03.914Z,3.75
2022-11-12T13:27:40.288Z,4.57
2022-11-12T13:30:11.475Z,4.28
2022-11-12T13:32:42.870Z,4.68
2022-11-12T13:35:12.945Z,4.85
2022-11-12T13:37:50.828Z,4.50
2022-11-12T13:40:21.627Z,4.43
2022-11-12T13:42:48.989Z,4.35
2022-11-12T13:45:21.296Z,5.53
2022-11-12T13:47:49.084Z,5.40
2022-11-12T13:50:22.136Z,4.15
2022-11-12T13:52:50.236Z,4.30
2022-11-12T13:55:19.044Z,4.78
2022-11-12T13:57:53.500Z,4.72
2022-11-12T14:00:20.898Z,4.93
2022-11-12T14:02:54.088Z,5.03
2022-11-12T14:05:23.661Z,5.90
2022-11-12T14:07:55.091Z,5.78
2022-11-12T14:10:25.477Z,5.55
2022-11-12T14:12:59.026Z,5.75
2022-11-12T14:15:45.100Z,5.65
2022-11-12T14:18:12.413Z,5.82
2022-11-12T14:20:40.629Z,5.55
2022-11-12T14:23:24.187Z,5.40
2022-11-12T14:25:53.549Z,6.03
2022-11-12T14:28:30.162Z,6.00
2022-11-12T14:30:58.294Z,5.57
2022-11-12T14:33:26.953Z,6.22
2022-11-12T14:36:14.592Z,6.45
2022-11-12T14:38:47.752Z,6.13
2022-11-12T14:43:43.824Z,6.97
2022-11-12T14:46:21.599Z,5.75
2022-11-12T14:48:58.497Z,6.35
2022-11-12T14:51:27.311Z,7.10
2022-11-12T14:53:57.079Z,6.97
2022-11-12T14:56:32.607Z,6.30
2022-11-12T14:59:02.653Z,6.68
2022-11-12T15:04:20.643Z,6.53
2022-11-12T15:06:55.128Z,6.88
2022-11-12T15:09:39.288Z,7.18
2022-11-12T15:12:12.718Z,6.38
2022-11-12T15:14:40.143Z,7.10
2022-11-12T15:17:07.596Z,7.05
2022-11-12T15:19:36.042Z,6.70
2022-11-12T15:22:04.583Z,7.63
2022-11-12T15:24:33.290Z,7.32
2022-11-12T15:27:02.216Z,7.55
2022-11-12T15:29:31.137Z,7.20
2022-11-12T15:32:24.549Z,7.63
2022-11-12T15:34:52.274Z,8.02
2022-11-12T15:37:19.799Z,7.85
2022-11-12T15:40:04.877Z,7.70
2022-11-12T15:42:37.718Z,7.35
2022-11-12T15:45:10.316Z,7.82
2022-11-12T15:50:14.927Z,7.63
2022-11-12T15:52:42.534Z,7.65
2022-11-12T15:55:10.505Z,8.60
2022-11-12T15:57:41.630Z,7.32
2022-11-12T16:00:15.685Z,7.45
2022-11-12T16:02:43.238Z,7.85
2022-11-12T16:05:14.731Z,8.27
2022-11-12T16:07:42.270Z,7.70
2022-11-12T16:10:16.573Z,6.72
2022-11-12T16:12:44.263Z,7.63
2022-11-12T16:15:18.923Z,7.10
2022-11-12T16:17:47.506Z,7.03
2022-11-12T16:20:21.403Z,6.40
2022-11-12T16:22:49.177Z,6.47
2022-11-12T16:25:16.966Z,5.95
2022-11-12T16:27:44.400Z,6.85
2022-11-12T16:30:18.671Z,7.57
2022-11-12T16:32:46.745Z,6.80
2022-11-12T16:35:14.126Z,6.63
2022-11-12T16:37:43.012Z,7.13
2022-11-12T16:40:17.634Z,7.00
2022-11-12T16:42:48.082Z,6.93
2022-11-12T16:45:15.869Z,6.80
2022-11-12T16:47:47.421Z,7.65
2022-11-12T16:50:16.816Z,8.23
2022-11-12T16:52:44.173Z,9.50
2022-11-12T16:55:11.631Z,9.13
2022-11-12T16:57:40.223Z,8.98
2022-11-12T17:00:10.850Z,9.57
2022-11-12T17:02:44.327Z,9.35
2022-11-12T17:05:18.272Z,9.55
2022-11-12T17:07:45.597Z,10.23
2022-11-12T17:10:13.041Z,10.00
2022-11-12T17:12:40.468Z,8.50
2022-11-12T17:15:08.206Z,9.60
2022-11-12T17:17:35.591Z,9.50
2022-11-12T17:20:02.987Z,9.48
2022-11-12T17:22:31.226Z,10.95
2022-11-12T17:24:58.578Z,10.77
2022-11-12T17:27:25.961Z,11.23
2022-11-12T17:29:53.259Z,11.05
2022-11-12T17:32:20.616Z,10.60
2022-11-12T17:34:48.363Z,10.07
2022-11-12T17:37:15.697Z,10.27
2022-11-12T17:39:44.445Z,10.95
2022-11-12T17:42:11.972Z,10.30
2022-11-12T17:44:39.354Z,11.00
2022-11-12T17:47:06.729Z,11.57
2022-11-12T17:49:34.490Z,11.15
2022-11-12T17:52:02.076Z,11.13
2022-11-12T17:54:29.396Z,10.18
2022-11-12T17:56:56.674Z,10.65
2022-11-12T17:59:24.331Z,10.23
2022-11-12T18:01:51.684Z,11.38
2022-11-12T18:04:19.447Z,11.50
2022-11-12T18:06:46.938Z,11.13
2022-11-12T18:09:15.389Z,11.80
2022-11-12T18:11:45.176Z,11.23
2022-11-12T18:14:12.870Z,13.00
2022-11-12T18:16:40.332Z,10.85
2022-11-12T18:19:10.923Z,11.90
2022-11-12T18:21:40.074Z,11.80
2022-11-12T18:24:08.041Z,12.32
2022-11-12T18:26:35.801Z,13.18
2022-11-12T18:29:03.231Z,13.32
2022-11-12T18:31:31.598Z,11.85
2022-11-12T18:33:58.952Z,13.15
2022-11-12T18:36:26.911Z,12.80
2022-11-12T18:38:55.421Z,12.80
2022-11-12T18:41:25.916Z,11.68
2022-11-12T18:43:54.088Z,17.55
2022-11-12T18:46:21.415Z,15.20
2022-11-12T18:48:49.811Z,16.58
2022-11-12T18:51:18.360Z,15.30
2022-11-12T18:53:46.240Z,15.07
2022-11-12T18:56:15.703Z,16.67
2022-11-12T18:58:43.201Z,16.52
2022-11-12T19:01:20.640Z,13.48
2022-11-12T19:03:48.755Z,14.98
2022-11-12T19:06:16.984Z,14.38
2022-11-12T19:08:44.301Z,14.65
2022-11-12T19:11:12.967Z,15.98
2022-11-12T19:13:41.732Z,13.65
2022-11-12T19:16:12.028Z,13.52
2022-11-12T19:18:40.163Z,13.52
2022-11-12T19:21:09.474Z,14.30
2022-11-12T19:23:36.893Z,14.38
2022-11-12T19:26:07.251Z,13.80
2022-11-12T19:28:37.392Z,14.50
2022-11-12T19:31:09.101Z,14.98
2022-11-12T19:33:36.575Z,14.50
2022-11-12T19:36:10.085Z,14.43
2022-11-12T19:38:37.643Z,16.08
2022-11-12T19:41:05.920Z,17.05
2022-11-12T19:43:33.404Z,15.23
2022-11-12T19:46:01.053Z,14.13
2022-11-12T19:48:31.705Z,15.02
2022-11-12T19:51:06.085Z,13.70
2022-11-12T19:53:34.537Z,14.32
2022-11-12T19:56:05.897Z,15.30
2022-11-12T19:58:33.508Z,13.65
2022-11-12T20:01:08.537Z,13.60
2022-11-12T20:03:36.782Z,15.07
2022-11-12T20:06:06.419Z,15.65
2022-11-12T20:08:33.981Z,16.13
2022-11-12T20:11:01.908Z,19.15
2022-11-12T20:13:29.362Z,21.40
2022-11-12T20:15:56.791Z,17.52
2022-11-12T20:18:24.632Z,16.55
2022-11-12T20:20:56.131Z,15.27
2022-11-12T20:23:24.681Z,15.65
2022-11-12T20:25:52.863Z,14.95
2022-11-12T20:28:20.503Z,16.27
2022-11-12T20:30:48.061Z,17.08
2022-11-12T20:33:15.570Z,17.40
2022-11-12T20:35:43.038Z,17.75
2022-11-12T20:38:10.379Z,17.65
2022-11-12T20:40:37.846Z,18.25
2022-11-12T20:43:05.133Z,20.60
2022-11-12T20:45:32.827Z,19.38
2022-11-12T20:48:00.126Z,22.52
2022-11-12T20:50:27.524Z,21.05
2022-11-12T20:52:54.847Z,20.15
2022-11-12T20:55:23.208Z,23.52
2022-11-12T20:57:50.511Z,23.15
2022-11-12T21:00:23.811Z,21.80
2022-11-12T21:02:51.569Z,23.38
2022-11-12T21:05:18.955Z,21.35
2022-11-12T21:07:46.252Z,23.35
2022-11-12T21:10:13.700Z,20.95
2022-11-12T21:12:41.078Z,22.63
2022-11-12T21:15:08.657Z,22.40
2022-11-12T21:17:35.965Z,23.55
2022-11-12T21:20:04.113Z,22.92
2022-11-12T21:22:32.992Z,21.20
2022-11-12T21:25:00.350Z,22.83
2022-11-12T21:27:27.665Z,21.30
2022-11-12T21:29:55.819Z,21.92
2022-11-12T21:32:23.085Z,20.73
2022-11-12T21:34:50.417Z,21.02
2022-11-12T21:37:18.317Z,20.88
2022-11-12T21:39:49.181Z,20.35
2022-11-12T21:42:16.482Z,20.67
2022-11-12T21:44:43.876Z,21.25
2022-11-12T21:47:11.220Z,16.95
2022-11-12T21:49:38.521Z,19.75
2022-11-12T21:52:05.999Z,18.08
2022-11-12T21:54:33.408Z,19.80
2022-11-12T21:57:00.687Z,20.13
2022-11-12T21:59:28.058Z,20.20
2022-11-12T22:01:55.341Z,18.27
2022-11-12T22:04:24.541Z,19.02
2022-11-12T22:06:52.076Z,19.15
2022-11-12T22:09:19.399Z,17.38
2022-11-12T22:11:46.764Z,17.38
2022-11-12T22:14:14.188Z,17.25
2022-11-12T22:16:41.596Z,16.38
2022-11-12T22:19:08.997Z,17.35
2022-11-12T22:21:40.054Z,19.17
2022-11-12T22:24:07.910Z,15.98
2022-11-12T22:26:35.279Z,17.00
2022-11-12T22:29:02.608Z,17.05
2022-11-12T22:31:31.149Z,16.30
2022-11-12T22:33:59.402Z,16.63
2022-11-12T22:36:29.607Z,15.98
2022-11-12T22:38:57.240Z,17.17
2022-11-12T22:41:25.897Z,17.48
2022-11-12T22:43:54.482Z,17.77
2022-11-12T22:46:23.308Z,17.90
2022-11-12T22:48:51.008Z,18.63
2022-11-12T22:51:19.413Z,19.42
2022-11-12T22:53:47.166Z,18.13
2022-11-12T22:56:15.618Z,19.23
2022-11-12T22:58:44.159Z,17.80
2022-11-12T23:01:18.270Z,19.08
2022-11-12T23:03:45.686Z,18.60
2022-11-12T23:06:13.031Z,19.08
2022-11-12T23:08:40.631Z,18.30
2022-11-12T23:11:09.162Z,19.08
2022-11-12T23:13:36.457Z,19.13
2022-11-12T23:16:06.733Z,19.90
2022-11-12T23:18:34.106Z,18.98
2022-11-12T23:21:05.393Z,19.60
2022-11-12T23:23:32.901Z,20.33
2022-11-12T23:26:07.927Z,19.80
2022-11-12T23:28:35.886Z,21.17
2022-11-12T23:31:04.192Z,19.42
2022-11-12T23:33:31.680Z,19.42
2022-11-12T23:36:08.821Z,17.73
2022-11-12T23:38:36.224Z,19.92
2022-11-12T23:41:03.770Z,19.13
2022-11-12T23:43:31.567Z,18.65
2022-11-12T23:45:58.913Z,19.13
2022-11-12T23:48:26.609Z,18.70
2022-11-12T23:51:01.112Z,19.02
2022-11-12T23:53:28.504Z,18.42
2022-11-12T23:55:55.950Z,20.65
2022-11-12T23:58:23.320Z,19.38
